Terminal Aerodrome Forecast
Issued by NWS

Home | Current Version | Previous Version | Text Only | Print | Product List | Glossary On
Versions: 1 2 3 4 5 6 7 8 9 10 11 12 13 14 15 16
191
FTUS43 KSGF 241920 AAA
TAFJLN
TAF AMD
KJLN 241920Z 2419/2518 13007KT P6SM BKN050
     FM242000 08010KT P6SM VCTS BKN020 BKN120CB
     FM250800 17008KT P6SM VCTS SCT025 BKN120CB
     FM251200 18010KT P6SM BKN020=

USA.gov is the U.S. government's official web portal to all federal, state and local government web resources and services.